sensor_id;sensor_type;location;lat;lon;timestamp;pressure;altitude;pressure_sealevel;temperature;humidity
77110;BME280;66062;52.464;16.922;2024-01-25T00:01:20;100045.28;;;7.38;87.93
77110;BME280;66062;52.464;16.922;2024-01-25T00:03:46;100046.00;;;7.40;88.09
77110;BME280;66062;52.464;16.922;2024-01-25T00:06:11;100047.53;;;7.43;87.46
77110;BME280;66062;52.464;16.922;2024-01-25T00:08:37;100055.22;;;7.36;86.97
77110;BME280;66062;52.464;16.922;2024-01-25T00:11:03;100050.00;;;7.25;87.39
77110;BME280;66062;52.464;16.922;2024-01-25T00:13:28;100039.44;;;7.14;87.81
77110;BME280;66062;52.464;16.922;2024-01-25T00:15:54;100048.38;;;7.13;88.64
77110;BME280;66062;52.464;16.922;2024-01-25T00:18:20;100047.53;;;7.12;88.52
77110;BME280;66062;52.464;16.922;2024-01-25T00:20:45;100059.66;;;7.05;89.68
77110;BME280;66062;52.464;16.922;2024-01-25T00:23:11;100046.63;;;7.02;89.21
77110;BME280;66062;52.464;16.922;2024-01-25T00:25:36;100078.34;;;7.04;88.54
77110;BME280;66062;52.464;16.922;2024-01-25T00:28:02;100072.38;;;7.11;88.62
77110;BME280;66062;52.464;16.922;2024-01-25T00:30:27;100092.63;;;7.12;89.63
77110;BME280;66062;52.464;16.922;2024-01-25T00:32:53;100093.16;;;7.06;92.95
77110;BME280;66062;52.464;16.922;2024-01-25T00:35:18;100086.94;;;6.96;94.99
77110;BME280;66062;52.464;16.922;2024-01-25T00:37:44;100091.00;;;6.91;95.61
77110;BME280;66062;52.464;16.922;2024-01-25T00:40:10;100086.75;;;6.88;97.01
77110;BME280;66062;52.464;16.922;2024-01-25T00:42:42;100086.81;;;6.77;97.18
77110;BME280;66062;52.464;16.922;2024-01-25T00:45:09;100087.94;;;6.74;97.49
77110;BME280;66062;52.464;16.922;2024-01-25T00:47:35;100106.03;;;6.69;99.12
77110;BME280;66062;52.464;16.922;2024-01-25T00:50:00;100096.84;;;6.73;99.34
77110;BME280;66062;52.464;16.922;2024-01-25T00:52:26;100102.47;;;6.59;99.50
77110;BME280;66062;52.464;16.922;2024-01-25T00:54:52;100115.72;;;6.59;99.86
77110;BME280;66062;52.464;16.922;2024-01-25T00:57:17;100092.47;;;6.52;100.00
77110;BME280;66062;52.464;16.922;2024-01-25T00:59:43;100073.34;;;6.48;100.00
77110;BME280;66062;52.464;16.922;2024-01-25T01:02:12;100083.69;;;6.51;100.00
77110;BME280;66062;52.464;16.922;2024-01-25T01:04:41;100096.47;;;6.46;100.00
77110;BME280;66062;52.464;16.922;2024-01-25T01:07:07;100111.41;;;6.47;100.00
77110;BME280;66062;52.464;16.922;2024-01-25T01:09:33;100106.47;;;6.54;100.00
77110;BME280;66062;52.464;16.922;2024-01-25T01:11:58;100132.31;;;6.61;100.00
77110;BME280;66062;52.464;16.922;2024-01-25T01:14:24;100143.94;;;6.60;99.69
77110;BME280;66062;52.464;16.922;2024-01-25T01:16:49;100138.63;;;6.60;99.84
77110;BME280;66062;52.464;16.922;2024-01-25T01:19:16;100123.44;;;6.51;100.00
77110;BME280;66062;52.464;16.922;2024-01-25T01:21:41;100129.25;;;6.45;100.00
77110;BME280;66062;52.464;16.922;2024-01-25T01:24:11;100115.22;;;6.33;98.57
77110;BME280;66062;52.464;16.922;2024-01-25T01:26:37;100130.84;;;6.36;99.28
77110;BME280;66062;52.464;16.922;2024-01-25T01:29:03;100128.66;;;6.41;98.58
77110;BME280;66062;52.464;16.922;2024-01-25T01:31:28;100110.50;;;6.37;98.97
77110;BME280;66062;52.464;16.922;2024-01-25T01:33:54;100118.44;;;6.37;99.41
77110;BME280;66062;52.464;16.922;2024-01-25T01:36:20;100111.91;;;6.41;99.68
77110;BME280;66062;52.464;16.922;2024-01-25T01:38:45;100116.38;;;6.40;99.19
77110;BME280;66062;52.464;16.922;2024-01-25T01:41:11;100114.44;;;6.42;99.41
77110;BME280;66062;52.464;16.922;2024-01-25T01:43:38;100115.00;;;6.57;97.16
77110;BME280;66062;52.464;16.922;2024-01-25T01:46:27;100119.06;;;6.61;95.91
77110;BME280;66062;52.464;16.922;2024-01-25T01:48:54;100123.19;;;6.65;96.16
77110;BME280;66062;52.464;16.922;2024-01-25T01:51:20;100129.56;;;6.63;96.52
77110;BME280;66062;52.464;16.922;2024-01-25T01:53:46;100132.31;;;6.61;97.69
77110;BME280;66062;52.464;16.922;2024-01-25T01:56:12;100131.13;;;6.65;97.76
77110;BME280;66062;52.464;16.922;2024-01-25T01:58:38;100124.06;;;6.55;96.29
77110;BME280;66062;52.464;16.922;2024-01-25T02:01:04;100136.66;;;6.62;94.62
77110;BME280;66062;52.464;16.922;2024-01-25T02:03:29;100133.97;;;6.73;94.25
77110;BME280;66062;52.464;16.922;2024-01-25T02:05:54;100118.19;;;6.72;94.33
77110;BME280;66062;52.464;16.922;2024-01-25T02:08:20;100125.19;;;6.73;94.31
77110;BME280;66062;52.464;16.922;2024-01-25T02:10:45;100129.25;;;6.77;94.78
77110;BME280;66062;52.464;16.922;2024-01-25T02:13:11;100129.00;;;6.80;94.32
77110;BME280;66062;52.464;16.922;2024-01-25T02:15:36;100119.50;;;6.77;94.43
77110;BME280;66062;52.464;16.922;2024-01-25T02:18:01;100125.38;;;6.81;93.90
77110;BME280;66062;52.464;16.922;2024-01-25T02:20:28;100113.88;;;6.92;93.28
77110;BME280;66062;52.464;16.922;2024-01-25T02:22:53;100123.78;;;6.90;93.16
77110;BME280;66062;52.464;16.922;2024-01-25T02:25:18;100114.88;;;6.91;91.76
77110;BME280;66062;52.464;16.922;2024-01-25T02:27:44;100109.56;;;6.91;91.14
77110;BME280;66062;52.464;16.922;2024-01-25T02:30:10;100113.75;;;6.93;90.16
77110;BME280;66062;52.464;16.922;2024-01-25T02:32:35;100117.69;;;6.99;90.33
77110;BME280;66062;52.464;16.922;2024-01-25T02:35:00;100116.00;;;6.98;89.79
77110;BME280;66062;52.464;16.922;2024-01-25T02:37:26;100106.34;;;6.97;90.19
77110;BME280;66062;52.464;16.922;2024-01-25T02:39:52;100105.16;;;7.01;90.02
77110;BME280;66062;52.464;16.922;2024-01-25T02:42:18;100116.13;;;6.96;89.64
77110;BME280;66062;52.464;16.922;2024-01-25T02:44:44;100100.81;;;7.00;88.76
77110;BME280;66062;52.464;16.922;2024-01-25T02:47:09;100103.91;;;7.05;88.79
77110;BME280;66062;52.464;16.922;2024-01-25T02:49:35;100107.81;;;7.01;88.72
77110;BME280;66062;52.464;16.922;2024-01-25T02:52:00;100103.25;;;7.12;88.03
77110;BME280;66062;52.464;16.922;2024-01-25T02:54:26;100101.72;;;7.10;87.13
77110;BME280;66062;52.464;16.922;2024-01-25T02:56:51;100105.38;;;7.18;86.79
77110;BME280;66062;52.464;16.922;2024-01-25T02:59:17;100102.47;;;7.21;85.45
77110;BME280;66062;52.464;16.922;2024-01-25T03:01:43;100110.13;;;7.36;85.28
77110;BME280;66062;52.464;16.922;2024-01-25T03:04:10;100109.84;;;7.39;84.13
77110;BME280;66062;52.464;16.922;2024-01-25T03:06:35;100114.31;;;7.38;84.21
77110;BME280;66062;52.464;16.922;2024-01-25T03:09:00;100107.31;;;7.37;84.59
77110;BME280;66062;52.464;16.922;2024-01-25T03:11:26;100117.22;;;7.35;84.63
77110;BME280;66062;52.464;16.922;2024-01-25T03:13:51;100121.13;;;7.31;85.13
77110;BME280;66062;52.464;16.922;2024-01-25T03:16:16;100124.88;;;7.28;84.04
77110;BME280;66062;52.464;16.922;2024-01-25T03:18:42;100127.06;;;7.23;84.88
77110;BME280;66062;52.464;16.922;2024-01-25T03:21:07;100117.47;;;7.32;85.04
77110;BME280;66062;52.464;16.922;2024-01-25T03:23:33;100137.16;;;7.29;85.33
77110;BME280;66062;52.464;16.922;2024-01-25T03:25:58;100122.59;;;7.24;86.18
77110;BME280;66062;52.464;16.922;2024-01-25T03:28:23;100116.91;;;7.08;86.60
77110;BME280;66062;52.464;16.922;2024-01-25T03:30:49;100131.22;;;7.16;87.55
77110;BME280;66062;52.464;16.922;2024-01-25T03:33:15;100137.81;;;7.01;88.94
77110;BME280;66062;52.464;16.922;2024-01-25T03:35:40;100149.41;;;7.00;90.27
77110;BME280;66062;52.464;16.922;2024-01-25T03:38:06;100144.09;;;6.79;92.53
77110;BME280;66062;52.464;16.922;2024-01-25T03:40:31;100144.16;;;6.89;93.04
77110;BME280;66062;52.464;16.922;2024-01-25T03:42:57;100141.44;;;6.79;94.60
77110;BME280;66062;52.464;16.922;2024-01-25T03:45:22;100140.63;;;6.68;94.51
77110;BME280;66062;52.464;16.922;2024-01-25T03:47:47;100136.44;;;6.65;93.74
77110;BME280;66062;52.464;16.922;2024-01-25T03:50:13;100140.19;;;6.83;93.50
77110;BME280;66062;52.464;16.922;2024-01-25T03:52:38;100133.72;;;6.76;93.47
77110;BME280;66062;52.464;16.922;2024-01-25T03:55:04;100129.31;;;6.86;91.89
77110;BME280;66062;52.464;16.922;2024-01-25T03:57:29;100127.44;;;6.77;91.42
77110;BME280;66062;52.464;16.922;2024-01-25T03:59:55;100124.75;;;6.88;92.09
77110;BME280;66062;52.464;16.922;2024-01-25T04:02:20;100131.91;;;6.77;92.96
77110;BME280;66062;52.464;16.922;2024-01-25T04:04:46;100129.53;;;6.74;93.17
77110;BME280;66062;52.464;16.922;2024-01-25T04:07:11;100131.13;;;6.65;91.98
77110;BME280;66062;52.464;16.922;2024-01-25T04:09:36;100130.81;;;6.79;91.74
77110;BME280;66062;52.464;16.922;2024-01-25T04:12:02;100139.88;;;6.77;92.00
77110;BME280;66062;52.464;16.922;2024-01-25T04:14:27;100136.81;;;6.81;90.75
77110;BME280;66062;52.464;16.922;2024-01-25T04:16:53;100139.94;;;6.86;90.36
77110;BME280;66062;52.464;16.922;2024-01-25T04:19:18;100139.44;;;6.93;90.57
77110;BME280;66062;52.464;16.922;2024-01-25T04:21:44;100142.09;;;6.93;90.65
77110;BME280;66062;52.464;16.922;2024-01-25T04:24:09;100146.34;;;6.84;90.85
77110;BME280;66062;52.464;16.922;2024-01-25T04:26:35;100145.03;;;6.78;90.44
77110;BME280;66062;52.464;16.922;2024-01-25T04:29:00;100150.81;;;6.83;90.63
77110;BME280;66062;52.464;16.922;2024-01-25T04:31:25;100147.59;;;6.80;90.79
77110;BME280;66062;52.464;16.922;2024-01-25T04:33:51;100153.72;;;6.80;90.82
77110;BME280;66062;52.464;16.922;2024-01-25T04:36:16;100155.00;;;6.86;91.35
77110;BME280;66062;52.464;16.922;2024-01-25T04:38:42;100142.41;;;6.78;91.45
77110;BME280;66062;52.464;16.922;2024-01-25T04:41:07;100144.09;;;6.79;92.66
77110;BME280;66062;52.464;16.922;2024-01-25T04:43:36;100160.97;;;6.78;93.22
77110;BME280;66062;52.464;16.922;2024-01-25T04:46:02;100151.81;;;6.71;94.21
77110;BME280;66062;52.464;16.922;2024-01-25T04:48:28;100158.16;;;6.59;95.50
77110;BME280;66062;52.464;16.922;2024-01-25T04:50:53;100153.69;;;6.60;96.12
77110;BME280;66062;52.464;16.922;2024-01-25T04:53:19;100152.59;;;6.51;97.28
77110;BME280;66062;52.464;16.922;2024-01-25T04:55:44;100148.63;;;6.57;97.28
77110;BME280;66062;52.464;16.922;2024-01-25T04:58:09;100143.81;;;6.51;97.54
77110;BME280;66062;52.464;16.922;2024-01-25T05:00:35;100152.38;;;6.54;97.06
77110;BME280;66062;52.464;16.922;2024-01-25T05:03:02;100149.97;;;6.51;97.40
77110;BME280;66062;52.464;16.922;2024-01-25T05:05:27;100151.66;;;6.52;97.70
77110;BME280;66062;52.464;16.922;2024-01-25T05:07:52;100151.44;;;6.44;98.50
77110;BME280;66062;52.464;16.922;2024-01-25T05:10:18;100155.44;;;6.38;98.82
77110;BME280;66062;52.464;16.922;2024-01-25T05:12:43;100146.63;;;6.38;98.18
77110;BME280;66062;52.464;16.922;2024-01-25T05:15:09;100156.28;;;6.39;99.67
77110;BME280;66062;52.464;16.922;2024-01-25T05:17:35;100158.94;;;6.39;99.82
77110;BME280;66062;52.464;16.922;2024-01-25T05:20:00;100158.94;;;6.39;100.00
77110;BME280;66062;52.464;16.922;2024-01-25T05:22:25;100155.75;;;6.45;100.00
77110;BME280;66062;52.464;16.922;2024-01-25T05:24:51;100151.66;;;6.52;99.82
77110;BME280;66062;52.464;16.922;2024-01-25T05:27:16;100148.78;;;6.44;100.00
77110;BME280;66062;52.464;16.922;2024-01-25T05:29:41;100155.66;;;6.35;99.60
77110;BME280;66062;52.464;16.922;2024-01-25T05:32:07;100156.47;;;6.47;98.86
77110;BME280;66062;52.464;16.922;2024-01-25T05:34:32;100167.84;;;6.38;97.84
77110;BME280;66062;52.464;16.922;2024-01-25T05:36:58;100175.78;;;6.38;97.72
77110;BME280;66062;52.464;16.922;2024-01-25T05:39:24;100176.25;;;6.54;95.94
77110;BME280;66062;52.464;16.922;2024-01-25T05:41:49;100181.44;;;6.44;96.01
77110;BME280;66062;52.464;16.922;2024-01-25T05:44:15;100186.22;;;6.51;95.92
77110;BME280;66062;52.464;16.922;2024-01-25T05:46:40;100178.75;;;6.56;95.76
77110;BME280;66062;52.464;16.922;2024-01-25T05:49:05;100187.22;;;6.50;95.89
77110;BME280;66062;52.464;16.922;2024-01-25T05:51:31;100204.47;;;6.44;96.29
77110;BME280;66062;52.464;16.922;2024-01-25T05:53:56;100189.25;;;6.46;96.10
77110;BME280;66062;52.464;16.922;2024-01-25T05:56:22;100196.00;;;6.50;95.96
77110;BME280;66062;52.464;16.922;2024-01-25T05:58:47;100205.31;;;6.44;95.68
77110;BME280;66062;52.464;16.922;2024-01-25T06:01:12;100206.84;;;6.47;95.61
77110;BME280;66062;52.464;16.922;2024-01-25T06:03:38;100212.41;;;6.44;96.77
77110;BME280;66062;52.464;16.922;2024-01-25T06:06:03;100211.47;;;6.34;97.58
77110;BME280;66062;52.464;16.922;2024-01-25T06:08:29;100229.38;;;6.41;97.42
77110;BME280;66062;52.464;16.922;2024-01-25T06:10:54;100223.97;;;6.54;96.58
77110;BME280;66062;52.464;16.922;2024-01-25T06:13:20;100235.28;;;6.45;96.95
77110;BME280;66062;52.464;16.922;2024-01-25T06:15:45;100224.19;;;6.40;96.92
77110;BME280;66062;52.464;16.922;2024-01-25T06:18:11;100230.13;;;6.43;97.06
77110;BME280;66062;52.464;16.922;2024-01-25T06:20:36;100237.44;;;6.40;97.25
77110;BME280;66062;52.464;16.922;2024-01-25T06:23:01;100243.38;;;6.43;97.04
77110;BME280;66062;52.464;16.922;2024-01-25T06:25:27;100246.25;;;6.52;96.21
77110;BME280;66062;52.464;16.922;2024-01-25T06:27:56;100261.06;;;6.54;96.32
77110;BME280;66062;52.464;16.922;2024-01-25T06:30:22;100261.28;;;6.51;96.04
77110;BME280;66062;52.464;16.922;2024-01-25T06:32:47;100258.66;;;6.40;96.51
77110;BME280;66062;52.464;16.922;2024-01-25T06:35:14;100266.84;;;6.48;95.54
77110;BME280;66062;52.464;16.922;2024-01-25T06:37:39;100246.97;;;6.54;96.11
77110;BME280;66062;52.464;16.922;2024-01-25T06:40:06;100249.50;;;6.44;95.96
77110;BME280;66062;52.464;16.922;2024-01-25T06:42:32;100255.66;;;6.44;96.49
77110;BME280;66062;52.464;16.922;2024-01-25T06:44:57;100263.56;;;6.56;95.34
77110;BME280;66062;52.464;16.922;2024-01-25T06:47:23;100269.41;;;6.50;96.37
77110;BME280;66062;52.464;16.922;2024-01-25T06:49:48;100272.63;;;6.42;96.99
77110;BME280;66062;52.464;16.922;2024-01-25T06:52:19;100270.47;;;6.47;97.09
77110;BME280;66062;52.464;16.922;2024-01-25T06:54:44;100277.94;;;6.53;97.00
77110;BME280;66062;52.464;16.922;2024-01-25T06:57:10;100278.41;;;6.47;97.71
77110;BME280;66062;52.464;16.922;2024-01-25T06:59:35;100290.94;;;6.45;97.42
77110;BME280;66062;52.464;16.922;2024-01-25T07:02:01;100276.25;;;6.52;97.75
77110;BME280;66062;52.464;16.922;2024-01-25T07:04:28;100300.69;;;6.56;97.41
77110;BME280;66062;52.464;16.922;2024-01-25T07:06:54;100303.97;;;6.48;97.85
77110;BME280;66062;52.464;16.922;2024-01-25T07:09:19;100305.28;;;6.42;97.42
77110;BME280;66062;52.464;16.922;2024-01-25T07:11:45;100309.75;;;6.42;98.49
77110;BME280;66062;52.464;16.922;2024-01-25T07:14:10;100310.59;;;6.42;98.29
77110;BME280;66062;52.464;16.922;2024-01-25T07:16:36;100306.13;;;6.43;98.99
77110;BME280;66062;52.464;16.922;2024-01-25T07:19:01;100317.22;;;6.48;98.15
77110;BME280;66062;52.464;16.922;2024-01-25T07:21:26;100317.97;;;6.50;97.53
77110;BME280;66062;52.464;16.922;2024-01-25T07:23:52;100333.34;;;6.56;96.96
77110;BME280;66062;52.464;16.922;2024-01-25T07:26:18;100319.63;;;6.62;95.39
77110;BME280;66062;52.464;16.922;2024-01-25T07:28:43;100329.13;;;6.76;94.37
77110;BME280;66062;52.464;16.922;2024-01-25T07:31:09;100315.38;;;6.71;94.25
77110;BME280;66062;52.464;16.922;2024-01-25T07:33:35;100336.38;;;6.74;93.66
77110;BME280;66062;52.464;16.922;2024-01-25T07:36:02;100342.25;;;6.88;92.57
77110;BME280;66062;52.464;16.922;2024-01-25T07:38:28;100353.81;;;6.87;92.67
77110;BME280;66062;52.464;16.922;2024-01-25T07:40:53;100355.50;;;6.88;92.13
77110;BME280;66062;52.464;16.922;2024-01-25T07:43:18;100346.81;;;6.86;91.86
77110;BME280;66062;52.464;16.922;2024-01-25T07:45:44;100361.19;;;6.84;91.76
77110;BME280;66062;52.464;16.922;2024-01-25T07:48:10;100351.91;;;7.01;90.39
77110;BME280;66062;52.464;16.922;2024-01-25T07:50:35;100361.41;;;7.03;90.76
77110;BME280;66062;52.464;16.922;2024-01-25T07:53:00;100371.63;;;7.08;89.82
77110;BME280;66062;52.464;16.922;2024-01-25T07:55:27;100357.16;;;7.12;89.49
77110;BME280;66062;52.464;16.922;2024-01-25T07:57:54;100358.84;;;7.13;89.20
77110;BME280;66062;52.464;16.922;2024-01-25T08:00:20;100349.19;;;7.12;89.40
77110;BME280;66062;52.464;16.922;2024-01-25T08:02:45;100360.78;;;7.11;88.70
77110;BME280;66062;52.464;16.922;2024-01-25T08:05:11;100356.28;;;7.22;88.03
77110;BME280;66062;52.464;16.922;2024-01-25T08:07:37;100366.63;;;7.37;87.01
77110;BME280;66062;52.464;16.922;2024-01-25T08:10:04;100357.28;;;7.53;85.80
77110;BME280;66062;52.464;16.922;2024-01-25T08:12:29;100359.88;;;7.64;85.00
77110;BME280;66062;52.464;16.922;2024-01-25T08:14:55;100354.47;;;7.66;83.35
77110;BME280;66062;52.464;16.922;2024-01-25T08:17:20;100368.81;;;7.63;84.01
77110;BME280;66062;52.464;16.922;2024-01-25T08:19:46;100387.28;;;7.65;83.28
77110;BME280;66062;52.464;16.922;2024-01-25T08:22:12;100372.59;;;7.61;84.04
77110;BME280;66062;52.464;16.922;2024-01-25T08:24:38;100391.31;;;7.48;84.40
77110;BME280;66062;52.464;16.922;2024-01-25T08:27:04;100392.75;;;7.52;84.04
77110;BME280;66062;52.464;16.922;2024-01-25T08:29:30;100399.88;;;7.52;83.86
77110;BME280;66062;52.464;16.922;2024-01-25T08:31:55;100393.22;;;7.57;83.03
77110;BME280;66062;52.464;16.922;2024-01-25T08:34:21;100402.25;;;7.66;83.07
77110;BME280;66062;52.464;16.922;2024-01-25T08:36:46;100397.94;;;7.54;83.09
77110;BME280;66062;52.464;16.922;2024-01-25T08:39:12;100407.38;;;7.47;83.10
77110;BME280;66062;52.464;16.922;2024-01-25T08:41:37;100414.25;;;7.49;83.45
77110;BME280;66062;52.464;16.922;2024-01-25T08:44:03;100422.25;;;7.38;83.75
77110;BME280;66062;52.464;16.922;2024-01-25T08:46:28;100406.97;;;7.30;84.54
77110;BME280;66062;52.464;16.922;2024-01-25T08:48:54;100421.41;;;7.38;84.85
77110;BME280;66062;52.464;16.922;2024-01-25T08:51:21;100423.59;;;7.32;85.14
77110;BME280;66062;52.464;16.922;2024-01-25T08:53:46;100440.84;;;7.27;85.63
77110;BME280;66062;52.464;16.922;2024-01-25T08:56:12;100425.28;;;7.22;85.78
77110;BME280;66062;52.464;16.922;2024-01-25T08:58:38;100439.66;;;7.20;86.67
77110;BME280;66062;52.464;16.922;2024-01-25T09:01:03;100457.50;;;7.18;87.14
77110;BME280;66062;52.464;16.922;2024-01-25T09:03:29;100450.63;;;7.26;86.48
77110;BME280;66062;52.464;16.922;2024-01-25T09:05:55;100449.28;;;7.32;86.23
77110;BME280;66062;52.464;16.922;2024-01-25T09:08:21;100461.47;;;7.35;85.49
77110;BME280;66062;52.464;16.922;2024-01-25T09:10:47;100469.81;;;7.41;85.21
77110;BME280;66062;52.464;16.922;2024-01-25T09:13:12;100467.63;;;7.35;85.92
77110;BME280;66062;52.464;16.922;2024-01-25T09:15:38;100474.88;;;7.33;85.45
77110;BME280;66062;52.464;16.922;2024-01-25T09:18:04;100473.16;;;7.43;84.88
77110;BME280;66062;52.464;16.922;2024-01-25T09:20:29;100475.81;;;7.43;84.54
77110;BME280;66062;52.464;16.922;2024-01-25T09:22:55;100481.38;;;7.40;84.51
77110;BME280;66062;52.464;16.922;2024-01-25T09:25:21;100477.78;;;7.41;84.58
77110;BME280;66062;52.464;16.922;2024-01-25T09:27:47;100491.16;;;7.51;83.81
77110;BME280;66062;52.464;16.922;2024-01-25T09:30:13;100488.25;;;7.43;84.70
77110;BME280;66062;52.464;16.922;2024-01-25T09:32:38;100482.44;;;7.49;84.08
77110;BME280;66062;52.464;16.922;2024-01-25T09:35:04;100485.94;;;7.60;83.33
77110;BME280;66062;52.464;16.922;2024-01-25T09:37:30;100491.94;;;7.62;83.08
77110;BME280;66062;52.464;16.922;2024-01-25T09:39:55;100505.22;;;7.62;83.32
77110;BME280;66062;52.464;16.922;2024-01-25T09:42:23;100507.03;;;7.62;83.05
77110;BME280;66062;52.464;16.922;2024-01-25T09:44:49;100497.25;;;7.62;82.67
77110;BME280;66062;52.464;16.922;2024-01-25T09:47:15;100509.81;;;7.71;82.80
77110;BME280;66062;52.464;16.922;2024-01-25T09:49:41;100513.28;;;7.83;81.99
77110;BME280;66062;52.464;16.922;2024-01-25T09:52:10;100533.59;;;7.73;82.26
77110;BME280;66062;52.464;16.922;2024-01-25T09:54:39;100513.88;;;7.87;82.63
77110;BME280;66062;52.464;16.922;2024-01-25T09:57:15;100528.53;;;7.70;82.54
77110;BME280;66062;52.464;16.922;2024-01-25T09:59:43;100527.31;;;7.63;82.69
77110;BME280;66062;52.464;16.922;2024-01-25T10:02:09;100535.19;;;7.64;82.98
77110;BME280;66062;52.464;16.922;2024-01-25T10:04:35;100536.88;;;7.65;82.85
77110;BME280;66062;52.464;16.922;2024-01-25T10:07:01;100537.34;;;7.59;82.92
77110;BME280;66062;52.464;16.922;2024-01-25T10:09:26;100556.44;;;7.64;83.20
77110;BME280;66062;52.464;16.922;2024-01-25T10:11:52;100550.53;;;7.61;83.26
77110;BME280;66062;52.464;16.922;2024-01-25T10:14:18;100556.44;;;7.64;83.62
77110;BME280;66062;52.464;16.922;2024-01-25T10:16:45;100559.69;;;7.57;83.83
77110;BME280;66062;52.464;16.922;2024-01-25T10:19:11;100551.50;;;7.49;84.78
77110;BME280;66062;52.464;16.922;2024-01-25T10:21:37;100561.25;;;7.48;84.20
77110;BME280;66062;52.464;16.922;2024-01-25T10:24:04;100563.56;;;7.53;84.35
77110;BME280;66062;52.464;16.922;2024-01-25T10:26:30;100552.56;;;7.57;84.04
77110;BME280;66062;52.464;16.922;2024-01-25T10:28:56;100566.56;;;7.70;84.19
77110;BME280;66062;52.464;16.922;2024-01-25T10:31:24;100561.25;;;7.70;83.83
77110;BME280;66062;52.464;16.922;2024-01-25T10:33:53;100569.00;;;7.51;84.99
77110;BME280;66062;52.464;16.922;2024-01-25T10:36:21;100564.03;;;7.47;85.17
77110;BME280;66062;52.464;16.922;2024-01-25T10:38:48;100571.88;;;7.48;85.52
77110;BME280;66062;52.464;16.922;2024-01-25T10:41:14;100577.09;;;7.50;85.40
77110;BME280;66062;52.464;16.922;2024-01-25T10:43:40;100575.28;;;7.39;86.08
77110;BME280;66062;52.464;16.922;2024-01-25T10:46:06;100575.28;;;7.39;85.68
77110;BME280;66062;52.464;16.922;2024-01-25T10:48:32;100579.47;;;7.42;85.49
77110;BME280;66062;52.464;16.922;2024-01-25T10:50:58;100582.25;;;7.29;85.80
77110;BME280;66062;52.464;16.922;2024-01-25T10:53:29;100581.16;;;7.31;86.14
77110;BME280;66062;52.464;16.922;2024-01-25T10:55:55;100581.41;;;7.28;86.28
77110;BME280;66062;52.464;16.922;2024-01-25T10:58:21;100589.28;;;7.30;86.33
77110;BME280;66062;52.464;16.922;2024-01-25T11:00:55;100591.78;;;7.31;86.84
77110;BME280;66062;52.464;16.922;2024-01-25T11:03:26;100588.88;;;7.23;86.25
77110;BME280;66062;52.464;16.922;2024-01-25T11:05:52;100595.78;;;7.37;85.96
77110;BME280;66062;52.464;16.922;2024-01-25T11:08:19;100586.72;;;7.28;86.87
77110;BME280;66062;52.464;16.922;2024-01-25T11:10:51;100595.66;;;7.27;87.34
77110;BME280;66062;52.464;16.922;2024-01-25T11:13:28;100602.91;;;7.25;86.92
77110;BME280;66062;52.464;16.922;2024-01-25T11:15:55;100600.84;;;7.40;86.68
77110;BME280;66062;52.464;16.922;2024-01-25T11:18:24;100596.63;;;7.38;86.63
77110;BME280;66062;52.464;16.922;2024-01-25T11:20:50;100598.69;;;7.34;86.27
77110;BME280;66062;52.464;16.922;2024-01-25T11:23:16;100595.78;;;7.37;86.54
77110;BME280;66062;52.464;16.922;2024-01-25T11:25:45;100601.44;;;7.32;86.09
77110;BME280;66062;52.464;16.922;2024-01-25T11:28:14;100599.16;;;7.39;86.81
77110;BME280;66062;52.464;16.922;2024-01-25T11:30:44;100595.56;;;7.40;86.19
77110;BME280;66062;52.464;16.922;2024-01-25T11:33:11;100613.66;;;7.35;86.19
77110;BME280;66062;52.464;16.922;2024-01-25T11:35:37;100604.84;;;7.46;86.03
77110;BME280;66062;52.464;16.922;2024-01-25T11:38:03;100606.38;;;7.37;85.91
77110;BME280;66062;52.464;16.922;2024-01-25T11:40:29;100622.22;;;7.39;86.38
77110;BME280;66062;52.464;16.922;2024-01-25T11:42:56;100630.78;;;7.31;86.41
77110;BME280;66062;52.464;16.922;2024-01-25T11:45:22;100620.03;;;7.32;86.15
77110;BME280;66062;52.464;16.922;2024-01-25T11:47:47;100623.28;;;7.25;86.56
77110;BME280;66062;52.464;16.922;2024-01-25T11:50:13;100608.06;;;7.27;86.37
77110;BME280;66062;52.464;16.922;2024-01-25T11:52:42;100625.34;;;7.32;85.91
77110;BME280;66062;52.464;16.922;2024-01-25T11:55:09;100628.72;;;7.35;86.00
77110;BME280;66062;52.464;16.922;2024-01-25T11:57:37;100627.16;;;7.43;85.82
77110;BME280;66062;52.464;16.922;2024-01-25T12:00:04;100635.41;;;7.51;85.68
77110;BME280;66062;52.464;16.922;2024-01-25T12:02:31;100639.47;;;7.44;85.89
77110;BME280;66062;52.464;16.922;2024-01-25T12:04:57;100639.00;;;7.39;86.21
77110;BME280;66062;52.464;16.922;2024-01-25T12:07:23;100649.84;;;7.36;86.70
77110;BME280;66062;52.464;16.922;2024-01-25T12:10:08;100648.88;;;7.26;88.38
77110;BME280;66062;52.464;16.922;2024-01-25T12:12:37;100656.84;;;7.26;89.47
77110;BME280;66062;52.464;16.922;2024-01-25T12:15:05;100673.69;;;7.14;90.67
77110;BME280;66062;52.464;16.922;2024-01-25T12:17:31;100665.13;;;7.21;91.49
77110;BME280;66062;52.464;16.922;2024-01-25T12:19:58;100672.84;;;7.13;91.17
77110;BME280;66062;52.464;16.922;2024-01-25T12:22:27;100675.13;;;7.18;91.73
77110;BME280;66062;52.464;16.922;2024-01-25T12:24:54;100681.16;;;7.09;92.41
77110;BME280;66062;52.464;16.922;2024-01-25T12:27:20;100681.25;;;7.07;93.75
77110;BME280;66062;52.464;16.922;2024-01-25T12:29:47;100675.59;;;7.12;93.06
77110;BME280;66062;52.464;16.922;2024-01-25T12:32:13;100678.56;;;6.96;93.91
77110;BME280;66062;52.464;16.922;2024-01-25T12:34:39;100675.84;;;7.09;93.74
77110;BME280;66062;52.464;16.922;2024-01-25T12:37:06;100683.81;;;7.09;93.22
77110;BME280;66062;52.464;16.922;2024-01-25T12:39:32;100693.31;;;7.11;91.73
77110;BME280;66062;52.464;16.922;2024-01-25T12:41:57;100683.34;;;7.15;91.66
77110;BME280;66062;52.464;16.922;2024-01-25T12:44:23;100682.75;;;7.22;91.65